Time;durP1;ratioP1;P1;durP2;ratioP2;P2;SDS_P1;SDS_P2;PMS_P1;PMS_P2;Temp;Humidity;BMP_temperature;BMP_pressure;BME280_temperature;BME280_humidity;BME280_pressure;Samples;Min_cycle;Max_cycle;Signal;HPM_P1;HPM_P2
2022/09/15 00:02:30;;;;;;;12.55;5.10;;;;;;;20.49;72.34;98076.63;5167355;28;20180;-74
2022/09/15 00:05:20;;;;;;;9.82;4.30;;;;;;;20.47;72.24;98067.97;5166465;28;20062;-74
2022/09/15 00:08:11;;;;;;;6.35;3.63;;;;;;;20.46;72.34;98071.69;5163812;28;20509;-74
2022/09/15 00:11:21;;;;;;;7.47;3.00;;;;;;;20.44;72.49;98068.44;5168363;28;20046;-74
2022/09/15 00:14:11;;;;;;;5.30;2.58;;;;;;;20.38;72.41;98064.78;5167901;28;20505;-74
2022/09/15 00:17:01;;;;;;;3.40;2.67;;;;;;;20.39;71.68;98068.28;5167200;28;20046;-74
2022/09/15 00:19:52;;;;;;;3.53;2.42;;;;;;;20.32;72.12;98064.88;5176960;28;20623;-74
2022/09/15 00:22:42;;;;;;;4.50;2.50;;;;;;;20.29;71.83;98062.63;5165427;28;20044;-74
2022/09/15 00:25:32;;;;;;;7.03;2.78;;;;;;;20.15;72.24;98060.13;5169427;28;20048;-74
2022/09/15 00:28:23;;;;;;;4.45;2.40;;;;;;;20.12;71.94;98055.19;5164101;28;20057;-74
2022/09/15 00:31:20;;;;;;;6.57;2.58;;;;;;;20.23;71.85;98052.78;5160786;28;20138;-74
2022/09/15 00:34:12;;;;;;;3.70;2.50;;;;;;;20.19;71.92;98058.63;5168722;28;20476;-75
2022/09/15 00:37:02;;;;;;;3.08;2.53;;;;;;;20.18;72.49;98061.56;5164988;28;20057;-74
2022/09/15 00:39:52;;;;;;;4.53;2.22;;;;;;;20.16;72.06;98067.16;5168377;28;20140;-74
2022/09/15 00:42:43;;;;;;;5.95;2.47;;;;;;;20.15;72.40;98060.13;5167237;28;20248;-74
2022/09/15 00:45:32;;;;;;;4.65;2.15;;;;;;;20.01;72.38;98042.53;5167792;28;20073;-74
2022/09/15 00:48:22;;;;;;;5.82;2.22;;;;;;;20.19;72.02;98069.38;5169295;28;20054;-74
2022/09/15 00:51:17;;;;;;;5.20;2.28;;;;;;;20.19;72.31;98072.06;5169181;28;20061;-75
2022/09/15 00:54:19;;;;;;;4.25;2.15;;;;;;;20.13;72.17;98064.09;5166063;28;20532;-74
2022/09/15 00:57:14;;;;;;;4.28;2.28;;;;;;;20.19;72.19;98060.50;5177546;28;20053;-74
2022/09/15 01:00:09;;;;;;;4.72;2.05;;;;;;;20.10;72.07;98057.31;5171720;28;20065;-74
2022/09/15 01:03:00;;;;;;;4.05;2.00;;;;;;;20.25;72.60;98069.53;5169571;28;20072;-74
2022/09/15 01:05:54;;;;;;;5.20;1.90;;;;;;;20.17;72.00;98052.66;5167812;28;20057;-74
2022/09/15 01:08:50;;;;;;;;;;;;;;;20.24;72.01;98071.41;5167231;28;20412;-74
2022/09/15 01:11:41;;;;;;;2.80;1.67;;;;;;;20.15;71.87;98075.47;5170791;28;19932;-74
2022/09/15 01:14:31;;;;;;;3.28;2.10;;;;;;;20.20;72.99;98064.84;5178815;28;20409;-74
2022/09/15 01:17:39;;;;;;;4.38;1.88;;;;;;;20.23;72.16;98063.53;5167327;28;20519;-74
2022/09/15 01:20:44;;;;;;;2.83;1.60;;;;;;;20.10;71.96;98057.31;5168267;28;20579;-74
2022/09/15 01:23:58;;;;;;;3.58;2.10;;;;;;;20.18;71.55;98054.28;5168184;28;20193;-74
2022/09/15 01:26:59;;;;;;;2.95;1.50;;;;;;;20.08;71.54;98054.03;5162662;28;20054;-74
2022/09/15 01:30:03;;;;;;;2.22;1.48;;;;;;;19.94;71.85;98039.94;5163542;28;20065;-74
2022/09/15 01:33:09;;;;;;;;;;;;;;;19.94;71.95;98041.81;5170111;28;20042;-74
2022/09/15 01:36:04;;;;;;;2.05;1.80;;;;;;;19.86;71.43;98045.59;5167241;28;20406;-75
2022/09/15 01:39:06;;;;;;;3.33;2.03;;;;;;;19.89;71.72;98044.34;5164962;28;20165;-74
2022/09/15 01:42:01;;;;;;;2.60;1.90;;;;;;;19.86;72.01;98031.34;5167074;28;20529;-74
2022/09/15 01:44:57;;;;;;;3.22;1.60;;;;;;;19.79;71.79;98028.72;5165413;28;20076;-74
2022/09/15 01:47:53;;;;;;;7.28;2.22;;;;;;;19.83;72.01;98035.28;5170579;28;20061;-74
2022/09/15 01:50:49;;;;;;;2.90;1.73;;;;;;;19.82;72.17;98035.53;5165392;28;20197;-74
2022/09/15 01:53:39;;;;;;;3.25;1.90;;;;;;;19.70;71.87;98022.00;5163726;28;20046;-74
2022/09/15 01:56:29;;;;;;;5.90;2.50;;;;;;;19.78;71.55;98024.41;5168371;28;20046;-74
2022/09/15 01:59:19;;;;;;;9.10;2.45;;;;;;;19.74;72.75;98028.59;5168460;28;20185;-74
2022/09/15 02:02:16;;;;;;;8.90;2.28;;;;;;;19.68;72.22;98024.94;5166445;28;20061;-74
2022/09/15 02:05:12;;;;;;;6.22;2.30;;;;;;;19.86;72.81;98036.72;5164500;28;20497;-74
2022/09/15 02:08:24;;;;;;;3.90;2.78;;;;;;;19.86;72.11;98031.34;5171563;28;20057;-74
2022/09/15 02:11:17;;;;;;;3.63;2.40;;;;;;;19.85;72.17;98024.31;5170226;28;20098;-74
2022/09/15 02:14:35;;;;;;;2.88;2.00;;;;;;;19.79;72.22;98022.53;5165649;28;20129;-74
2022/09/15 02:17:28;;;;;;;5.10;2.28;;;;;;;19.78;72.62;98028.97;5165789;28;20592;-74
2022/09/15 02:20:32;;;;;;;5.50;2.15;;;;;;;19.73;72.15;98012.69;5178356;28;20061;-74
2022/09/15 02:23:30;;;;;;;6.18;1.50;;;;;;;19.73;71.74;98012.69;5169432;28;20635;-74
2022/09/15 02:26:25;;;;;;;2.67;1.98;;;;;;;19.62;72.03;98012.38;5163618;28;20555;-74
2022/09/15 02:29:18;;;;;;;3.83;1.98;;;;;;;19.63;72.18;98023.94;5178304;23;20046;-81
2022/09/15 02:32:10;;;;;;;3.15;1.58;;;;;;;19.65;72.01;98005.75;5142370;28;20174;-81
2022/09/15 02:35:05;;;;;;;4.05;1.73;;;;;;;19.76;71.94;98023.00;5138724;28;20094;-83
2022/09/15 02:37:56;;;;;;;4.05;1.52;;;;;;;19.71;72.48;98005.66;5152082;28;20132;-83
2022/09/15 02:40:47;;;;;;;4.28;1.90;;;;;;;19.80;71.84;98010.72;5168343;28;20105;-83
2022/09/15 02:43:46;;;;;;;3.60;1.98;;;;;;;19.85;71.44;98005.50;5151138;28;20042;-84
2022/09/15 02:46:38;;;;;;;2.67;2.08;;;;;;;19.88;72.00;98022.00;5139852;28;20058;-84
2022/09/15 02:49:28;;;;;;;7.78;1.70;;;;;;;19.83;71.86;98010.28;5139300;28;20046;-82
2022/09/15 02:52:18;;;;;;;3.35;1.90;;;;;;;19.68;72.06;97995.38;5161714;28;20042;-81
2022/09/15 02:55:09;;;;;;;9.27;2.03;;;;;;;19.87;72.05;98017.69;5153780;28;20065;-83
2022/09/15 02:57:59;;;;;;;8.88;2.47;;;;;;;19.87;72.13;98006.09;5151433;28;20057;-82
2022/09/15 03:00:50;;;;;;;5.40;2.47;;;;;;;19.80;71.97;97999.97;5138436;28;20050;-84
2022/09/15 03:03:45;;;;;;;7.30;2.33;;;;;;;19.81;72.46;98015.06;5154989;28;20082;-82
2022/09/15 03:06:35;;;;;;;6.53;2.40;;;;;;;19.30;72.24;97936.44;5153797;28;20052;-83
2022/09/15 03:09:25;;;;;;;3.33;2.10;;;;;;;19.73;72.22;97986.59;5167760;28;20046;-84
2022/09/15 03:12:16;;;;;;;4.03;2.10;;;;;;;19.78;71.84;97994.00;5170308;28;20125;-82
2022/09/15 03:15:09;;;;;;;3.83;2.10;;;;;;;19.85;72.50;97994.75;5165938;28;20543;-80
2022/09/15 03:18:00;;;;;;;5.88;1.90;;;;;;;19.73;71.98;97991.16;5150983;28;20043;-82
2022/09/15 03:20:55;;;;;;;4.25;2.00;;;;;;;19.79;72.18;97992.94;5170859;28;20055;-83
2022/09/15 03:23:46;;;;;;;4.63;1.98;;;;;;;19.83;72.06;97997.63;5163249;28;20512;-84
2022/09/15 03:26:36;;;;;;;2.92;1.92;;;;;;;19.73;72.02;97983.09;5155017;28;20051;-83
2022/09/15 03:29:26;;;;;;;3.70;2.03;;;;;;;19.72;72.25;97982.28;5170443;28;20185;-81
2022/09/15 03:32:16;;;;;;;2.17;1.98;;;;;;;19.73;71.97;97997.38;5154997;28;20068;-83
2022/09/15 03:35:06;;;;;;;3.33;1.90;;;;;;;19.73;71.71;98001.91;5167284;28;20061;-84
2022/09/15 03:37:56;;;;;;;6.75;2.17;;;;;;;19.63;71.85;97992.53;5166979;28;20200;-81
2022/09/15 03:41:09;;;;;;;3.40;2.20;;;;;;;19.78;71.91;98010.16;5142452;28;20078;-82
2022/09/15 03:43:59;;;;;;;5.60;1.85;;;;;;;19.63;72.46;97997.91;5138180;28;20113;-83
2022/09/15 03:46:50;;;;;;;5.60;2.17;;;;;;;19.53;72.45;97978.75;5144719;28;20422;-84
2022/09/15 03:49:40;;;;;;;6.65;2.58;;;;;;;19.95;72.03;98016.53;5163595;28;20062;-80
2022/09/15 03:52:30;;;;;;;6.78;2.58;;;;;;;19.65;72.44;97973.47;5169203;28;20065;-82
2022/09/15 03:55:21;;;;;;;4.18;3.20;;;;;;;19.77;72.34;98006.66;5178796;28;20082;-81
2022/09/15 03:58:12;;;;;;;7.47;2.88;;;;;;;19.76;72.74;98006.84;5149650;28;20052;-83
2022/09/15 04:01:02;;;;;;;3.97;2.42;;;;;;;19.65;72.57;97992.31;5147407;28;20533;-81
2022/09/15 04:03:53;;;;;;;4.50;2.60;;;;;;;19.57;72.39;97979.97;5160405;28;20174;-81
2022/09/15 04:06:43;;;;;;;2.90;2.30;;;;;;;19.59;72.19;97991.31;5150726;28;20047;-81
2022/09/15 04:09:36;;;;;;;5.13;2.60;;;;;;;19.62;72.20;98001.63;5152405;28;20055;-82
2022/09/15 04:12:26;;;;;;;6.70;2.47;;;;;;;19.64;72.01;97999.56;5151623;28;20042;-81
2022/09/15 04:15:16;;;;;;;6.45;2.40;;;;;;;19.59;72.30;97993.19;5155418;28;20060;-82
2022/09/15 04:18:07;;;;;;;4.40;2.38;;;;;;;19.59;72.37;97995.88;5154431;28;20140;-85
2022/09/15 04:20:59;;;;;;;3.95;2.83;;;;;;;19.59;72.94;98001.25;5170396;28;20057;-84
2022/09/15 04:23:50;;;;;;;6.55;2.08;;;;;;;19.69;72.32;98015.81;5154154;28;20049;-83
2022/09/15 04:26:44;;;;;;;4.28;2.40;;;;;;;19.66;72.62;98018.16;5140051;28;20053;-80
2022/09/15 04:29:34;;;;;;;2.80;2.17;;;;;;;19.60;72.60;98005.56;5152666;28;20182;-82
2022/09/15 04:32:24;;;;;;;3.35;2.08;;;;;;;19.56;72.48;98001.69;5111998;28;20057;-84
2022/09/15 04:35:15;;;;;;;3.08;2.08;;;;;;;19.66;72.33;98020.84;5145005;28;20100;-82
2022/09/15 04:38:05;;;;;;;2.15;1.90;;;;;;;19.63;72.77;98007.81;5147098;28;20101;-81
2022/09/15 04:40:56;;;;;;;4.13;1.98;;;;;;;19.67;72.85;98015.25;5170740;28;20082;-80
2022/09/15 04:43:47;;;;;;;2.65;2.00;;;;;;;19.65;72.30;98001.19;5147759;28;20050;-82
2022/09/15 04:46:37;;;;;;;6.18;2.47;;;;;;;19.71;72.36;97997.59;5150073;28;20051;-83
2022/09/15 04:49:27;;;;;;;6.85;2.53;;;;;;;19.77;72.55;98001.25;5150787;28;20054;-83
2022/09/15 04:52:17;;;;;;;10.27;2.55;;;;;;;19.72;72.34;98006.47;5150573;28;20050;-82
2022/09/15 04:55:08;;;;;;;2.25;1.90;;;;;;;19.51;72.36;97982.75;5137149;28;20472;-85
2022/09/15 04:57:59;;;;;;;3.08;2.28;;;;;;;19.63;72.46;98003.28;5150643;28;20053;-84
2022/09/15 05:00:49;;;;;;;6.28;2.70;;;;;;;19.64;72.82;98004.13;5166003;28;20104;-85
2022/09/15 05:03:40;;;;;;;2.88;2.13;;;;;;;19.80;72.48;98024.16;5165719;28;20049;-83
2022/09/15 05:06:31;;;;;;;3.95;2.35;;;;;;;19.80;72.35;98003.50;5136030;28;20053;-83
2022/09/15 05:09:21;;;;;;;2.92;2.25;;;;;;;19.72;72.22;98009.19;5136623;28;20057;-83
2022/09/15 05:12:13;;;;;;;4.93;2.05;;;;;;;19.75;72.25;98006.03;5146687;28;20528;-81
2022/09/15 05:15:04;;;;;;;6.00;2.28;;;;;;;19.75;72.59;98015.97;5145066;28;20053;-82
2022/09/15 05:17:54;;;;;;;3.28;1.73;;;;;;;19.76;72.60;98015.75;5152209;28;20066;-81
2022/09/15 05:20:44;;;;;;;3.67;1.95;;;;;;;19.73;72.06;98013.50;5165890;28;20088;-80
2022/09/15 05:23:35;;;;;;;3.78;2.00;;;;;;;19.73;72.52;98012.69;5147788;28;20501;-79
2022/09/15 05:26:28;;;;;;;2.50;1.90;;;;;;;19.75;72.78;98010.59;5147762;28;20627;-79
2022/09/15 05:29:18;;;;;;;6.85;2.40;;;;;;;19.82;72.76;98006.75;5163805;28;20042;-80
2022/09/15 05:32:08;;;;;;;6.40;2.92;;;;;;;19.93;72.72;98040.13;5145463;28;20424;-80
2022/09/15 05:34:58;;;;;;;4.22;2.33;;;;;;;19.86;73.23;98031.34;5148522;28;20073;-80
2022/09/15 05:37:49;;;;;;;11.05;2.35;;;;;;;19.87;73.29;98035.69;5152468;28;20061;-81
2022/09/15 05:40:39;;;;;;;3.28;2.20;;;;;;;19.91;73.74;98047.63;5138254;28;20057;-79
2022/09/15 05:43:31;;;;;;;4.88;2.10;;;;;;;19.95;73.01;98048.81;5137789;28;20050;-80
2022/09/15 05:46:24;;;;;;;4.53;2.78;;;;;;;19.99;72.89;98039.22;5153088;28;20061;-81
2022/09/15 05:49:15;;;;;;;6.60;2.53;;;;;;;19.97;73.19;98025.22;5140470;28;20120;-80
2022/09/15 05:52:05;;;;;;;4.63;2.58;;;;;;;20.00;73.09;98024.75;5164825;28;20124;-81
2022/09/15 05:54:55;;;;;;;2.55;2.03;;;;;;;20.02;72.51;98035.28;5163312;28;20060;-81
2022/09/15 05:57:48;;;;;;;4.15;2.55;;;;;;;19.97;73.35;98033.28;5149833;28;20057;-79
2022/09/15 06:00:40;;;;;;;4.78;1.73;;;;;;;19.88;72.65;98018.50;5144145;28;20417;-79
2022/09/15 06:03:30;;;;;;;3.55;1.67;;;;;;;20.03;71.79;98028.84;5152190;28;20069;-81
2022/09/15 06:06:21;;;;;;;5.10;2.03;;;;;;;20.04;72.01;98034.00;5152275;28;20120;-82
2022/09/15 06:09:11;;;;;;;5.80;2.00;;;;;;;20.12;72.49;98046.31;5138700;28;20207;-81
2022/09/15 06:12:01;;;;;;;3.05;1.77;;;;;;;20.07;72.29;98052.38;5135727;28;20152;-81
2022/09/15 06:14:52;;;;;;;3.25;2.00;;;;;;;20.00;72.55;98040.91;5163195;28;20101;-81
2022/09/15 06:17:42;;;;;;;9.57;2.60;;;;;;;20.12;72.13;98039.06;5153485;28;20046;-80
2022/09/15 06:20:33;;;;;;;4.85;1.85;;;;;;;20.07;72.44;98047.00;5142786;28;20069;-81
2022/09/15 06:23:24;;;;;;;4.63;2.17;;;;;;;19.85;73.01;98051.22;5166107;28;20042;-82
2022/09/15 06:26:17;;;;;;;2.80;1.98;;;;;;;20.00;73.07;98059.72;5137227;28;20108;-80
2022/09/15 06:29:10;;;;;;;4.03;2.33;;;;;;;19.93;72.96;98053.59;5154235;28;20137;-80
2022/09/15 06:32:01;;;;;;;5.50;2.47;;;;;;;19.90;73.67;98052.19;5150477;28;20050;-81
2022/09/15 06:34:52;;;;;;;6.55;2.13;;;;;;;20.11;72.82;98063.50;5139001;28;20476;-81
2022/09/15 06:37:42;;;;;;;5.45;2.22;;;;;;;20.18;73.11;98069.63;5168008;28;20057;-81
2022/09/15 06:40:32;;;;;;;4.72;2.10;;;;;;;19.97;73.64;98057.50;5150573;28;20420;-80
2022/09/15 06:43:23;;;;;;;5.30;2.50;;;;;;;20.17;73.34;98076.88;5170900;28;20049;-81
2022/09/15 06:46:19;;;;;;;3.65;2.30;;;;;;;20.25;72.99;98075.72;5141088;28;20057;-82
2022/09/15 06:49:10;;;;;;;4.72;2.45;;;;;;;20.21;73.33;98081.81;5144176;28;20238;-82
2022/09/15 06:52:03;;;;;;;6.55;2.67;;;;;;;20.21;73.27;98082.63;5137848;28;20108;-81
2022/09/15 06:54:54;;;;;;;4.18;2.47;;;;;;;20.24;73.24;98076.78;5143814;28;20054;-82
2022/09/15 06:57:44;;;;;;;4.53;2.53;;;;;;;20.19;73.38;98077.44;5147689;28;20140;-82
2022/09/15 07:00:35;;;;;;;9.75;2.92;;;;;;;20.30;72.53;98067.00;5150638;28;20057;-80
2022/09/15 07:03:25;;;;;;;5.65;2.70;;;;;;;20.22;73.09;98054.66;5167105;28;20101;-81
2022/09/15 07:06:18;;;;;;;5.78;2.40;;;;;;;20.35;72.93;98076.00;5151792;28;20428;-81
2022/09/15 07:09:10;;;;;;;5.23;2.13;;;;;;;20.31;72.77;98074.81;5137993;28;20056;-82
2022/09/15 07:12:01;;;;;;;12.82;2.80;;;;;;;20.37;72.97;98071.22;5152511;28;20081;-82
2022/09/15 07:14:52;;;;;;;3.83;2.15;;;;;;;20.33;71.70;98061.13;5148658;28;20053;-81
2022/09/15 07:17:42;;;;;;;3.95;2.40;;;;;;;20.30;72.75;98072.38;5152576;28;20057;-81
2022/09/15 07:20:33;;;;;;;7.05;2.47;;;;;;;20.36;72.96;98071.44;5157856;28;20055;-81
2022/09/15 07:23:23;;;;;;;3.30;1.83;;;;;;;20.46;72.30;98077.06;5141361;28;20729;-80
2022/09/15 07:26:16;;;;;;;5.63;2.63;;;;;;;20.69;72.06;98092.50;5164998;28;20080;-80
2022/09/15 07:29:06;;;;;;;4.38;1.90;;;;;;;20.64;72.41;98089.72;5172798;28;20519;-81
2022/09/15 07:31:56;;;;;;;3.97;2.00;;;;;;;20.44;72.09;98078.38;5158689;28;20050;-80
2022/09/15 07:34:47;;;;;;;6.30;2.13;;;;;;;20.55;72.25;98081.13;5176378;28;20054;-81
2022/09/15 07:37:37;;;;;;;3.42;1.80;;;;;;;20.30;72.53;98083.16;5142378;28;20046;-80
2022/09/15 07:40:27;;;;;;;5.15;2.03;;;;;;;20.39;73.61;98084.44;5150966;28;20061;-80
2022/09/15 07:43:18;;;;;;;6.13;2.00;;;;;;;20.72;72.80;98085.84;5151182;28;20125;-81
2022/09/15 07:46:08;;;;;;;3.65;2.10;;;;;;;20.87;73.28;98094.31;5162655;28;20426;-79
2022/09/15 07:48:59;;;;;;;6.20;2.10;;;;;;;20.72;73.60;98102.81;5149106;28;20064;-80
2022/09/15 07:51:49;;;;;;;5.72;2.45;;;;;;;20.76;72.71;98093.25;5166237;28;20058;-81
2022/09/15 07:54:40;;;;;;;6.50;2.70;;;;;;;21.19;72.05;98075.09;5152570;28;20050;-80
2022/09/15 07:57:30;;;;;;;5.15;2.20;;;;;;;21.38;72.03;98092.84;5151571;28;20048;-80
2022/09/15 08:00:20;;;;;;;7.32;2.40;;;;;;;20.56;74.33;98088.19;5151388;28;20054;-80
2022/09/15 08:03:13;;;;;;;6.70;2.60;;;;;;;21.24;72.37;98102.19;5150491;28;20054;-80
2022/09/15 08:06:03;;;;;;;4.53;2.38;;;;;;;21.48;72.04;98116.53;5148752;28;20050;-79
2022/09/15 08:08:53;;;;;;;6.30;2.17;;;;;;;21.19;72.02;98108.31;5166105;28;20508;-79
2022/09/15 08:11:49;;;;;;;3.50;2.13;;;;;;;21.14;70.73;98108.16;5147502;28;20424;-80
2022/09/15 08:14:40;;;;;;;3.40;2.00;;;;;;;20.93;72.26;98119.53;5152081;28;20053;-79
2022/09/15 08:17:30;;;;;;;9.38;2.25;;;;;;;20.97;72.92;98140.38;5150466;28;20046;-81
2022/09/15 08:20:20;;;;;;;4.57;2.30;;;;;;;20.87;72.89;98142.81;5164887;28;20054;-80
2022/09/15 08:23:10;;;;;;;5.22;2.25;;;;;;;20.69;73.40;98140.19;5150644;28;20069;-79
2022/09/15 08:26:01;;;;;;;5.25;2.47;;;;;;;20.72;72.34;98137.03;5143876;28;20149;-80
2022/09/15 08:28:51;;;;;;;4.60;2.40;;;;;;;20.69;72.59;98150.94;5165721;28;20117;-81
2022/09/15 08:31:43;;;;;;;2.60;1.92;;;;;;;20.53;73.17;98136.25;5150305;28;20084;-79
2022/09/15 08:34:33;;;;;;;5.95;1.70;;;;;;;19.77;75.36;98157.28;5141704;28;20061;-81
2022/09/15 08:37:24;;;;;;;4.50;2.00;;;;;;;20.30;74.59;98143.19;5150849;28;20262;-80
2022/09/15 08:40:27;;;;;;;3.90;1.95;;;;;;;20.12;74.26;98141.31;5134991;28;20467;-79
2022/09/15 08:43:22;;;;;;;;;;;;;;;20.36;73.79;98162.97;5149823;28;20652;-79
2022/09/15 08:46:19;;;;;;;3.08;1.30;;;;;;;20.20;74.09;98156.34;5165107;28;20636;-80
2022/09/15 08:49:46;;;;;;;1.83;1.40;;;;;;;20.23;73.54;98163.13;5167182;23;20073;-69
2022/09/15 08:53:15;;;;;;;2.42;1.00;;;;;;;19.84;75.21;98176.03;5150440;28;20073;-70
2022/09/15 08:56:15;;;;;;;0.93;0.60;;;;;;;19.79;74.58;98182.06;5162114;28;20057;-69
2022/09/15 08:59:11;;;;;;;1.17;0.60;;;;;;;19.92;75.48;98179.22;5162116;28;20189;-69
2022/09/15 09:02:10;;;;;;;3.92;0.70;;;;;;;19.99;76.17;98178.34;5163870;28;20563;-70
2022/09/15 09:05:19;;;;;;;2.90;1.13;;;;;;;20.33;74.89;98188.50;5161073;28;20096;-70
2022/09/15 09:08:18;;;;;;;0.93;0.60;;;;;;;20.51;72.98;98193.06;5163349;28;20062;-69
2022/09/15 09:11:26;;;;;;;0.90;0.40;;;;;;;20.31;72.42;98197.84;5163732;28;20129;-69
2022/09/15 09:14:41;;;;;;;3.03;0.40;;;;;;;19.99;74.29;98197.16;5163102;28;20133;-70
2022/09/15 09:18:00;;;;;;;1.05;0.40;;;;;;;19.94;72.59;98197.84;5163684;28;20053;-69
2022/09/15 09:21:01;;;;;;;0.70;0.40;;;;;;;19.68;72.47;98198.94;5161465;28;20188;-69
2022/09/15 09:24:11;;;;;;;1.05;0.40;;;;;;;19.96;71.60;98198.44;5160367;28;20137;-70
2022/09/15 09:27:03;;;;;;;2.35;0.40;;;;;;;20.11;71.40;98188.13;5160977;28;20050;-69
2022/09/15 09:30:00;;;;;;;3.30;0.60;;;;;;;19.50;72.32;98199.66;5155872;28;20058;-69
2022/09/15 09:33:22;;;;;;;0.85;0.50;;;;;;;19.35;72.35;98212.66;5162668;28;20061;-70
2022/09/15 09:36:13;;;;;;;0.75;0.57;;;;;;;18.57;75.05;98202.16;5160493;28;20073;-69
2022/09/15 09:39:04;;;;;;;2.33;1.05;;;;;;;18.40;75.79;98215.25;5163613;28;20591;-69
2022/09/15 09:41:54;;;;;;;0.95;0.80;;;;;;;18.14;76.60;98218.84;5161581;28;20054;-69
2022/09/15 09:44:45;;;;;;;1.15;1.05;;;;;;;17.91;77.13;98219.31;5163151;28;20066;-69
2022/09/15 09:47:39;;;;;;;2.47;1.42;;;;;;;18.53;75.18;98226.75;5162517;28;20128;-69
2022/09/15 09:50:49;;;;;;;4.13;1.40;;;;;;;18.65;73.88;98224.22;5162672;28;20742;-70
2022/09/15 09:53:41;;;;;;;3.63;1.77;;;;;;;18.17;75.02;98237.22;5162659;28;20057;-69
2022/09/15 09:56:31;;;;;;;3.60;2.10;;;;;;;18.33;73.91;98223.31;5161680;28;20065;-69
2022/09/15 09:59:39;;;;;;;4.65;2.35;;;;;;;18.37;73.52;98234.47;5162647;28;20129;-70
2022/09/15 10:02:30;;;;;;;9.63;2.40;;;;;;;18.30;74.38;98213.00;5160813;28;20074;-70
2022/09/15 10:05:20;;;;;;;4.32;2.45;;;;;;;18.38;72.47;98222.72;5162496;28;20125;-70
2022/09/15 10:08:19;;;;;;;4.50;2.30;;;;;;;17.89;73.77;98229.44;5162769;28;20065;-70
2022/09/15 10:11:09;;;;;;;5.07;2.75;;;;;;;18.31;73.80;98236.97;5159843;28;20064;-70
2022/09/15 10:13:59;;;;;;;5.32;2.78;;;;;;;18.32;72.51;98245.84;5159677;28;20551;-69
2022/09/15 10:16:59;;;;;;;4.65;2.35;;;;;;;18.34;71.93;98232.19;5162898;28;20128;-69
2022/09/15 10:19:54;;;;;;;4.95;2.50;;;;;;;18.03;72.70;98228.38;5160485;28;20076;-69
2022/09/15 10:22:45;;;;;;;4.15;2.55;;;;;;;17.71;73.13;98230.06;5167174;28;20068;-69
2022/09/15 10:25:37;;;;;;;3.63;2.60;;;;;;;17.95;72.96;98239.34;5163379;28;20105;-69
2022/09/15 10:29:11;;;;;;;5.28;3.00;;;;;;;17.24;73.24;98240.78;5162744;28;20057;-69
2022/09/15 10:32:15;;;;;;;5.75;3.28;;;;;;;17.30;75.27;98241.81;5158639;28;20104;-69
2022/09/15 10:35:10;;;;;;;6.60;3.08;;;;;;;17.64;72.98;98256.88;5140516;28;20061;-69
2022/09/15 10:38:08;;;;;;;;;;;;;;;17.13;74.88;98266.31;5163802;28;20157;-69
2022/09/15 10:41:16;;;;;;;6.75;3.50;;;;;;;17.46;74.12;98259.34;5158783;28;19933;-69
2022/09/15 10:44:40;;;;;;;5.00;4.03;;;;;;;17.52;73.48;98259.34;5159795;28;20444;-69
2022/09/15 10:47:48;;;;;;;7.30;4.15;;;;;;;17.76;71.97;98263.28;5160655;28;20089;-69
2022/09/15 10:50:47;;;;;;;9.40;4.28;;;;;;;17.57;72.46;98251.50;5161329;28;20424;-69
2022/09/15 10:53:58;;;;;;;7.88;4.47;;;;;;;17.77;72.38;98272.16;5162152;28;20193;-69
2022/09/15 10:56:56;;;;;;;7.80;4.07;;;;;;;17.43;71.50;98273.16;5159965;28;20097;-69
2022/09/15 11:00:07;;;;;;;5.70;4.20;;;;;;;17.35;73.81;98266.97;5165127;28;20507;-69
2022/09/15 11:03:06;;;;;;;8.57;5.13;;;;;;;17.53;72.54;98266.34;5157611;28;20057;-69
2022/09/15 11:06:25;;;;;;;7.97;4.30;;;;;;;17.72;71.52;98274.63;5160553;28;20054;-70
2022/09/15 11:09:47;;;;;;;6.07;4.50;;;;;;;17.48;72.71;98276.03;5161066;28;20093;-70
2022/09/15 11:12:51;;;;;;;10.38;4.85;;;;;;;17.28;73.49;98281.38;5161176;28;20049;-70
2022/09/15 11:15:58;;;;;;;6.68;4.13;;;;;;;17.28;74.75;98289.41;5160161;28;20042;-70
2022/09/15 11:18:53;;;;;;;8.00;4.03;;;;;;;17.59;72.94;98291.53;5160647;28;20050;-70
2022/09/15 11:22:06;;;;;;;8.93;4.15;;;;;;;17.39;74.49;98291.50;5166799;28;20065;-70
2022/09/15 11:25:17;;;;;;;9.55;4.45;;;;;;;17.67;71.38;98298.53;5161486;28;20046;-70
2022/09/15 11:28:18;;;;;;;9.52;4.28;;;;;;;17.59;73.11;98296.88;5160434;28;20061;-70
2022/09/15 11:31:20;;;;;;;11.73;4.70;;;;;;;17.68;72.49;98305.53;5162429;28;20196;-70
2022/09/15 11:34:33;;;;;;;8.98;5.03;;;;;;;17.54;73.57;98299.34;5159839;28;20425;-70
2022/09/15 11:37:33;;;;;;;7.40;4.30;;;;;;;17.04;74.18;98306.91;5147570;28;20072;-70
2022/09/15 11:40:39;;;;;;;8.70;5.03;;;;;;;17.16;74.63;98301.78;5159784;28;20077;-69
2022/09/15 11:43:35;;;;;;;8.43;5.00;;;;;;;17.63;74.04;98305.34;5159631;28;20551;-69
2022/09/15 11:46:50;;;;;;;10.00;4.72;;;;;;;17.99;72.01;98318.34;5158834;28;20049;-69
2022/09/15 11:49:47;;;;;;;8.20;5.18;;;;;;;17.66;72.97;98313.78;5159727;28;20125;-69
2022/09/15 11:53:01;;;;;;;9.82;5.32;;;;;;;17.90;72.92;98314.22;5158590;28;20112;-69
2022/09/15 11:55:59;;;;;;;9.38;5.45;;;;;;;17.77;72.23;98317.75;5156185;28;20069;-69
2022/09/15 11:58:58;;;;;;;10.32;5.28;;;;;;;18.00;72.54;98338.78;5163039;28;20065;-69
2022/09/15 12:02:18;;;;;;;9.82;5.15;;;;;;;16.65;76.38;98346.69;5161251;28;20436;-69
2022/09/15 12:05:30;;;;;;;11.77;5.10;;;;;;;16.93;74.68;98353.84;5159870;28;20567;-69
2022/09/15 12:08:38;;;;;;;12.35;5.90;;;;;;;16.82;76.02;98349.88;5160878;28;20097;-69
2022/09/15 12:11:37;;;;;;;11.23;5.78;;;;;;;17.04;75.46;98363.13;5160719;28;20112;-69
2022/09/15 12:14:33;;;;;;;13.25;6.30;;;;;;;17.75;73.11;98360.81;5158019;28;20148;-69
2022/09/15 12:17:37;;;;;;;12.93;6.57;;;;;;;17.88;70.98;98367.25;5161291;28;20065;-69
2022/09/15 12:20:47;;;;;;;13.93;6.22;;;;;;;18.10;72.22;98363.31;5156966;28;20162;-69
2022/09/15 12:23:46;;;;;;;9.63;6.13;;;;;;;18.24;71.40;98359.59;5160815;28;20116;-69
2022/09/15 12:26:37;;;;;;;13.70;6.00;;;;;;;18.58;70.13;98367.59;5160748;28;20077;-69
2022/09/15 12:29:34;;;;;;;14.13;7.32;;;;;;;18.35;69.04;98360.00;5162022;28;20103;-69
2022/09/15 12:32:33;;;;;;;10.07;6.13;;;;;;;18.79;69.99;98364.66;5162636;28;20050;-69
2022/09/15 12:35:23;;;;;;;10.98;6.75;;;;;;;19.14;70.06;98364.31;5164850;28;20139;-69
2022/09/15 12:38:14;;;;;;;9.13;5.10;;;;;;;18.42;71.16;98356.28;5148619;28;20152;-69
2022/09/15 12:41:09;;;;;;;8.35;4.50;;;;;;;18.43;70.29;98362.47;5164138;28;20054;-69
2022/09/15 12:44:15;;;;;;;9.18;4.90;;;;;;;18.12;72.10;98376.53;5161706;28;20053;-69
2022/09/15 12:47:16;;;;;;;9.98;5.80;;;;;;;19.00;70.50;98368.91;5164522;28;20054;-69
2022/09/15 12:50:15;;;;;;;7.10;4.78;;;;;;;19.00;68.89;98374.28;5166567;28;20050;-69
2022/09/15 12:53:24;;;;;;;11.63;5.40;;;;;;;19.05;69.06;98379.84;5160409;28;20057;-69
2022/09/15 12:56:26;;;;;;;8.90;5.10;;;;;;;18.12;70.36;98365.81;5163513;28;20487;-70
2022/09/15 12:59:24;;;;;;;8.80;4.63;;;;;;;18.59;70.27;98379.97;5163567;28;20065;-69
2022/09/15 13:02:49;;;;;;;9.27;4.68;;;;;;;17.89;69.81;98379.63;5165930;28;20056;-69
2022/09/15 13:05:44;;;;;;;12.27;4.57;;;;;;;18.15;70.29;98374.28;5163572;28;20519;-69
2022/09/15 13:08:35;;;;;;;7.20;4.10;;;;;;;18.58;68.39;98387.22;5164238;28;20050;-69
2022/09/15 13:11:41;;;;;;;8.13;3.75;;;;;;;18.51;69.63;98389.91;5164010;28;20140;-69
2022/09/15 13:14:36;;;;;;;8.50;4.20;;;;;;;18.56;68.23;98381.22;5162730;28;20053;-69
2022/09/15 13:17:28;;;;;;;6.45;3.70;;;;;;;18.77;69.02;98375.63;5163902;28;20050;-69
2022/09/15 13:20:25;;;;;;;10.88;4.13;;;;;;;19.53;68.48;98394.69;5162112;28;20046;-69
2022/09/15 13:23:18;;;;;;;10.38;4.70;;;;;;;19.86;66.40;98387.25;5162458;28;20412;-70
2022/09/15 13:26:14;;;;;;;7.88;4.00;;;;;;;19.39;68.19;98392.09;5161793;28;20129;-69
2022/09/15 13:29:05;;;;;;;5.05;3.65;;;;;;;19.63;64.52;98374.38;5162247;28;20061;-69
2022/09/15 13:32:09;;;;;;;7.20;3.50;;;;;;;19.62;64.59;98372.72;5164612;28;20132;-69
2022/09/15 13:35:18;;;;;;;7.80;3.28;;;;;;;19.46;64.60;98383.97;5161425;28;20472;-69
2022/09/15 13:38:31;;;;;;;6.30;3.03;;;;;;;18.79;66.77;98378.09;5161784;28;20081;-69
2022/09/15 13:41:39;;;;;;;6.28;3.45;;;;;;;19.41;63.54;98383.81;5162027;28;20172;-69
2022/09/15 13:44:55;;;;;;;7.65;3.35;;;;;;;19.28;66.63;98381.22;5162952;28;20554;-69
2022/09/15 13:47:53;;;;;;;7.25;2.70;;;;;;;20.10;62.98;98374.06;5160929;28;20047;-69
2022/09/15 13:50:58;;;;;;;5.20;2.85;;;;;;;19.60;63.88;98382.88;5159723;28;20116;-69